Time;durP1;ratioP1;P1;durP2;ratioP2;P2;SDS_P1;SDS_P2;PMS_P1;PMS_P2;Temp;Humidity;BMP_temperature;BMP_pressure;BME280_temperature;BME280_humidity;BME280_pressure;Samples;Min_cycle;Max_cycle;Signal;HPM_P1;HPM_P2
2022/03/29 00:01:59;;;;;;;1999.90;631.95;;;;;;;;;;5036947;28;19952;-75
2022/03/29 00:04:30;;;;;;;1999.90;631.80;;;;;;;;;;5036487;28;20041;-75
2022/03/29 00:06:59;;;;;;;1999.90;632.03;;;;;;;;;;5036434;28;20091;-76
2022/03/29 00:09:30;;;;;;;1999.90;631.75;;;;;;;;;;5036497;28;20056;-76
2022/03/29 00:11:58;;;;;;;1999.90;632.17;;;;;;;;;;5036363;28;20054;-76
2022/03/29 00:14:44;;;;;;;1999.90;632.00;;;;;;;;;;5036981;28;20116;-75
2022/03/29 00:17:14;;;;;;;1999.90;638.28;;;;;;;;;;5034514;28;20045;-76
2022/03/29 00:19:42;;;;;;;1999.90;636.55;;;;;;;;;;5016278;28;20505;-75
2022/03/29 00:22:18;;;;;;;1999.90;632.42;;;;;;;;;;5016436;28;20069;-77
2022/03/29 00:24:46;;;;;;;1999.90;635.83;;;;;;;;;;5016340;28;20046;-76
2022/03/29 00:27:15;;;;;;;1999.90;632.38;;;;;;;;;;5016622;28;20053;-76
2022/03/29 00:29:43;;;;;;;1999.90;632.88;;;;;;;;;;5016758;28;20081;-76
2022/03/29 00:32:10;;;;;;;1999.90;632.95;;;;;;;;;;5015295;28;20052;-76
2022/03/29 00:34:42;;;;;;;1999.90;633.60;;;;;;;;;;5014797;28;20050;-75
2022/03/29 00:37:12;;;;;;;1999.90;633.53;;;;;;;;;;5014967;28;20504;-75
2022/03/29 00:39:39;;;;;;;1999.90;999.90;;;;;;;;;;5016111;28;20121;-76
2022/03/29 00:42:08;;;;;;;1999.90;631.78;;;;;;;;;;5016187;28;20281;-76
2022/03/29 00:44:40;;;;;;;1999.90;631.80;;;;;;;;;;5016240;28;20052;-76
2022/03/29 00:47:08;;;;;;;1999.90;632.78;;;;;;;;;;5016147;28;20049;-75
2022/03/29 00:49:38;;;;;;;1999.90;633.55;;;;;;;;;;5014757;28;20101;-77
2022/03/29 00:52:06;;;;;;;1999.90;632.85;;;;;;;;;;5014316;28;20046;-76
2022/03/29 00:54:41;;;;;;;1999.90;634.25;;;;;;;;;;5020895;28;20440;-77
2022/03/29 00:57:36;;;;;;;1999.90;631.95;;;;;;;;;;5035569;28;20134;-76
2022/03/29 01:00:07;;;;;;;1999.90;631.83;;;;;;;;;;5035039;28;20130;-76
2022/03/29 01:02:36;;;;;;;1999.90;633.95;;;;;;;;;;5035823;28;20041;-77
2022/03/29 01:05:06;;;;;;;1999.90;635.95;;;;;;;;;;5033997;28;20145;-76
2022/03/29 01:07:48;;;;;;;1999.90;635.20;;;;;;;;;;5034505;28;20421;-76
2022/03/29 01:10:16;;;;;;;1999.90;635.63;;;;;;;;;;5035533;28;20061;-76
2022/03/29 01:12:46;;;;;;;1999.90;634.70;;;;;;;;;;5035512;28;20400;-76
2022/03/29 01:15:16;;;;;;;1999.90;634.00;;;;;;;;;;5034441;28;20037;-76
2022/03/29 01:17:54;;;;;;;1999.90;817.30;;;;;;;;;;5034095;28;20060;-76
2022/03/29 01:20:30;;;;;;;1999.90;632.15;;;;;;;;;;5032770;28;20110;-76
2022/03/29 01:22:58;;;;;;;1999.90;632.20;;;;;;;;;;5067284;28;20136;-76
2022/03/29 01:25:26;;;;;;;1999.90;633.33;;;;;;;;;;5035361;28;20041;-75
2022/03/29 01:28:00;;;;;;;1999.90;632.45;;;;;;;;;;5033790;28;20069;-75
2022/03/29 01:30:28;;;;;;;1999.90;634.42;;;;;;;;;;5033450;28;20056;-75
2022/03/29 01:32:59;;;;;;;1999.90;636.65;;;;;;;;;;5035273;28;20199;-76
2022/03/29 01:35:27;;;;;;;1999.90;635.95;;;;;;;;;;5033587;28;20139;-77
2022/03/29 01:37:55;;;;;;;1999.90;639.42;;;;;;;;;;5035034;28;20045;-76
2022/03/29 01:40:26;;;;;;;1999.90;635.88;;;;;;;;;;5033463;28;20037;-76
2022/03/29 01:42:56;;;;;;;1999.90;631.17;;;;;;;;;;5034069;28;20038;-75
2022/03/29 01:45:31;;;;;;;1999.90;632.30;;;;;;;;;;5034789;28;20481;-76
2022/03/29 01:47:58;;;;;;;1999.90;634.30;;;;;;;;;;5034764;28;20080;-76
2022/03/29 01:50:33;;;;;;;1999.90;632.38;;;;;;;;;;5035157;28;20124;-76
2022/03/29 01:53:01;;;;;;;1999.90;631.95;;;;;;;;;;5034916;28;20046;-77
2022/03/29 01:55:37;;;;;;;1897.75;619.67;;;;;;;;;;5033434;28;20073;-76
2022/03/29 01:58:05;;;;;;;1999.90;631.22;;;;;;;;;;5034456;28;20408;-76
2022/03/29 02:00:38;;;;;;;1999.90;631.85;;;;;;;;;;5032921;28;20041;-76
2022/03/29 02:03:10;;;;;;;1999.90;633.08;;;;;;;;;;5034248;28;20038;-77
2022/03/29 02:05:44;;;;;;;1999.90;635.70;;;;;;;;;;5034154;28;20087;-76
2022/03/29 02:08:16;;;;;;;1999.90;631.08;;;;;;;;;;5034062;28;20054;-76
2022/03/29 02:10:50;;;;;;;1999.90;631.60;;;;;;;;;;5034351;28;20046;-76
2022/03/29 02:13:17;;;;;;;1999.90;630.85;;;;;;;;;;5034205;28;20072;-76
2022/03/29 02:15:47;;;;;;;1999.90;632.88;;;;;;;;;;5034980;28;20041;-76
2022/03/29 02:18:18;;;;;;;1999.90;632.75;;;;;;;;;;5034083;28;20440;-76
2022/03/29 02:20:47;;;;;;;1999.90;631.42;;;;;;;;;;5066238;28;20065;-77
2022/03/29 02:23:19;;;;;;;1999.90;631.90;;;;;;;;;;5033740;28;20055;-75
2022/03/29 02:25:47;;;;;;;1999.90;631.95;;;;;;;;;;5034576;28;20543;-77
2022/03/29 02:28:16;;;;;;;1999.90;631.28;;;;;;;;;;5034214;28;20107;-76
2022/03/29 02:30:49;;;;;;;1999.90;631.92;;;;;;;;;;5034282;28;20080;-77
2022/03/29 02:33:19;;;;;;;1999.90;631.42;;;;;;;;;;5034124;28;20048;-75
2022/03/29 02:35:46;;;;;;;1999.90;634.30;;;;;;;;;;5033622;28;20053;-76
2022/03/29 02:38:20;;;;;;;1999.90;632.50;;;;;;;;;;5033593;28;20419;-77
2022/03/29 02:40:49;;;;;;;1999.90;632.65;;;;;;;;;;5033906;28;20037;-76
2022/03/29 02:43:17;;;;;;;1999.90;631.78;;;;;;;;;;5033674;28;20400;-75
2022/03/29 02:45:45;;;;;;;1999.90;631.85;;;;;;;;;;5033693;28;20037;-76
2022/03/29 02:48:19;;;;;;;1999.90;633.63;;;;;;;;;;5033796;28;20136;-77
2022/03/29 02:50:46;;;;;;;1999.90;632.88;;;;;;;;;;5032584;28;20053;-77
2022/03/29 02:53:41;;;;;;;1999.90;637.20;;;;;;;;;;5025376;28;20029;-75
2022/03/29 02:56:09;;;;;;;1999.90;653.10;;;;;;;;;;4880129;28;33494;-77
2022/03/29 02:58:38;;;;;;;1999.90;632.08;;;;;;;;;;5031423;28;20463;-76
2022/03/29 03:01:14;;;;;;;1999.90;632.95;;;;;;;;;;5031528;28;20523;-77
2022/03/29 03:06:35;;;;;;;1999.90;631.75;;;;;;;;;;5032129;28;20050;-75
2022/03/29 03:09:09;;;;;;;1999.90;631.42;;;;;;;;;;5032041;28;20056;-77
2022/03/29 03:14:30;;;;;;;1999.90;632.63;;;;;;;;;;5032593;28;20037;-77
2022/03/29 03:17:02;;;;;;;1999.90;632.55;;;;;;;;;;5036910;28;20044;-77
2022/03/29 03:19:37;;;;;;;1999.90;634.70;;;;;;;;;;5041570;28;20041;-77
2022/03/29 03:22:04;;;;;;;1999.90;634.33;;;;;;;;;;5032614;28;20076;-75
2022/03/29 03:24:35;;;;;;;1999.90;636.60;;;;;;;;;;5031084;28;20045;-77
2022/03/29 03:27:03;;;;;;;;;;;;;;;;;;4989041;28;20048;-76
2022/03/29 03:29:30;;;;;;;;;;;;;;;;;;4575960;28;81747;-76
2022/03/29 03:31:58;;;;;;;;;;;;;;;;;;4772270;28;39396;-77
2022/03/29 03:34:29;;;;;;;;;;;;;;;;;;4863601;28;20356;-77
2022/03/29 03:36:58;;;;;;;;;;;;;;;;;;4880114;28;20446;-77
2022/03/29 03:39:27;;;;;;;;;;;;;;;;;;4867096;28;20086;-76
2022/03/29 03:41:57;;;;;;;;;;;;;;;;;;4876223;28;20391;-77
2022/03/29 03:44:25;;;;;;;;;;;;;;;;;;4881555;28;20558;-77
2022/03/29 03:46:54;;;;;;;;;;;;;;;;;;4884589;28;20247;-77
2022/03/29 03:49:24;;;;;;;;;;;;;;;;;;4882007;28;20284;-76
2022/03/29 03:52:05;;;;;;;;;;;;;;;;;;4890922;28;20256;-76
2022/03/29 03:54:35;;;;;;;;;;;;;;;;;;4883107;28;20056;-75
2022/03/29 03:57:05;;;;;;;;;;;;;;;;;;4872994;28;20362;-76
2022/03/29 03:59:34;;;;;;;;;;;;;;;;;;4879054;28;20474;-76
2022/03/29 04:02:03;;;;;;;;;;;;;;;;;;4887370;28;20115;-76
2022/03/29 04:04:35;;;;;;;;;;;;;;;;;;4878142;28;20783;-76
2022/03/29 04:07:03;;;;;;;;;;;;;;;;;;4840770;28;20382;-75
2022/03/29 04:09:35;;;;;;;;;;;;;;;;;;4859134;28;20781;-76
2022/03/29 04:12:08;;;;;;;;;;;;;;;;;;4887447;28;20247;-76
2022/03/29 04:14:36;;;;;;;;;;;;;;;;;;4862866;28;20587;-73
2022/03/29 04:17:17;;;;;;;;;;;;;;;;;;4861753;28;20125;-75
2022/03/29 04:19:50;;;;;;;;;;;;;;;;;;4848468;28;20142;-76
2022/03/29 04:22:18;;;;;;;;;;;;;;;;;;4830895;28;20226;-74
2022/03/29 04:24:59;;;;;;;;;;;;;;;;;;4834230;28;20724;-76
2022/03/29 04:27:27;;;;;;;;;;;;;;;;;;4858895;28;20217;-75
2022/03/29 04:29:57;;;;;;;;;;;;;;;;;;4838112;28;21142;-74
2022/03/29 04:32:29;;;;;;;;;;;;;;;;;;4876568;28;20045;-76
2022/03/29 04:34:57;;;;;;;;;;;;;;;;;;4892216;28;20200;-73
2022/03/29 04:37:24;;;;;;;;;;;;;;;;;;4788642;28;20163;-76
2022/03/29 04:39:52;;;;;;;;;;;;;;;;;;4815023;28;20739;-73
2022/03/29 04:42:23;;;;;;;;;;;;;;;;;;4795790;28;22306;-76
2022/03/29 04:44:55;;;;;;;;;;;;;;;;;;4816107;28;52840;-73
2022/03/29 04:47:26;;;;;;;;;;;;;;;;;;4822251;28;20100;-74
2022/03/29 04:49:55;;;;;;;;;;;;;;;;;;4868392;28;20556;-75
2022/03/29 04:52:23;;;;;;;;;;;;;;;;;;4852824;28;21089;-73
2022/03/29 04:54:56;;;;;;;;;;;;;;;;;;4887942;28;20120;-76
2022/03/29 04:57:24;;;;;;;;;;;;;;;;;;4851615;28;20826;-75
2022/03/29 04:59:52;;;;;;;;;;;;;;;;;;4785517;28;20631;-73
2022/03/29 05:02:25;;;;;;;;;;;;;;;;;;4856569;28;20550;-75
2022/03/29 05:04:56;;;;;;;;;;;;;;;;;;4809998;28;20851;-76
2022/03/29 05:07:32;;;;;;;;;;;;;;;;;;4825845;28;20199;-75
2022/03/29 05:09:59;;;;;;;;;;;;;;;;;;4826541;28;20527;-76
2022/03/29 05:12:28;;;;;;;;;;;;;;;;;;4845762;28;20212;-74
2022/03/29 05:14:55;;;;;;;;;;;;;;;;;;4847178;28;20238;-75
2022/03/29 05:17:24;;;;;;;;;;;;;;;;;;4876162;28;20718;-76
2022/03/29 05:19:59;;;;;;;;;;;;;;;;;;4893719;28;20048;-76
2022/03/29 05:22:28;;;;;;;;;;;;;;;;;;4844813;28;20433;-76
2022/03/29 05:24:59;;;;;;;;;;;;;;;;;;4884396;28;20335;-73
2022/03/29 05:27:27;;;;;;;;;;;;;;;;;;4872330;28;20577;-74
2022/03/29 05:29:55;;;;;;;;;;;;;;;;;;4840838;28;20312;-76
2022/03/29 05:32:24;;;;;;;;;;;;;;;;;;4823987;28;20308;-75
2022/03/29 05:34:51;;;;;;;;;;;;;;;;;;4865144;28;20517;-73
2022/03/29 05:37:22;;;;;;;;;;;;;;;;;;4878762;28;20051;-77
2022/03/29 05:39:50;;;;;;;;;;;;;;;;;;4918043;28;20612;-76
2022/03/29 05:42:19;;;;;;;;;;;;;;;;;;4876986;28;20313;-76
2022/03/29 05:44:47;;;;;;;;;;;;;;;;;;4898027;28;20298;-73
2022/03/29 05:50:14;;;;;;;;;;;;;;;;;;4876216;28;20798;-76
2022/03/29 05:52:41;;;;;;;;;;;;;;;;;;4905692;28;20230;-76
2022/03/29 05:55:10;;;;;;;;;;;;;;;;;;4880093;28;20281;-75
2022/03/29 05:57:40;;;;;;;;;;;;;;;;;;4892788;28;20170;-74
2022/03/29 06:00:10;;;;;;;;;;;;;;;;;;4880031;28;20444;-75
2022/03/29 06:02:55;;;;;;;;;;;;;;;;;;4924621;28;20101;-75
2022/03/29 06:05:29;;;;;;;;;;;;;;;;;;4883714;28;20335;-73
2022/03/29 06:07:59;;;;;;;;;;;;;;;;;;4894241;28;20180;-75
2022/03/29 06:10:26;;;;;;;;;;;;;;;;;;4925078;28;20490;-72
2022/03/29 06:12:54;;;;;;;;;;;;;;;;;;4909045;28;20487;-75
2022/03/29 06:15:22;;;;;;;;;;;;;;;;;;4901219;28;20655;-75
2022/03/29 06:17:49;;;;;;;;;;;;;;;;;;4898341;28;20117;-74
2022/03/29 06:20:17;;;;;;;;;;;;;;;;;;4917481;28;20657;-75
2022/03/29 06:22:46;;;;;;;;;;;;;;;;;;4895689;28;20211;-75
2022/03/29 06:25:14;;;;;;;;;;;;;;;;;;4921835;28;20106;-75
2022/03/29 06:27:43;;;;;;;;;;;;;;;;;;4913770;28;20114;-75
2022/03/29 06:30:11;;;;;;;;;;;;;;;;;;4856408;28;20244;-73
2022/03/29 06:32:38;;;;;;;;;;;;;;;;;;4883559;28;20536;-76
2022/03/29 06:35:06;;;;;;;;;;;;;;;;;;4864212;28;20397;-75
2022/03/29 06:37:34;;;;;;;;;;;;;;;;;;4885370;28;20525;-74
2022/03/29 06:40:02;;;;;;;;;;;;;;;;;;4895224;28;20297;-75
2022/03/29 06:42:30;;;;;;;;;;;;;;;;;;4906377;28;20676;-74
2022/03/29 06:44:58;;;;;;;;;;;;;;;;;;4911803;28;20216;-74
2022/03/29 06:47:33;;;;;;;;;;;;;;;;;;4926434;28;20276;-75
2022/03/29 06:50:00;;;;;;;;;;;;;;;;;;4934612;28;20156;-75
2022/03/29 06:52:29;;;;;;;;;;;;;;;;;;4936259;28;20051;-74
2022/03/29 06:54:57;;;;;;;;;;;;;;;;;;4931152;28;20190;-74
2022/03/29 06:57:25;;;;;;;;;;;;;;;;;;4913176;28;20165;-75
2022/03/29 06:59:52;;;;;;;;;;;;;;;;;;4916765;28;20079;-74
2022/03/29 07:02:20;;;;;;;;;;;;;;;;;;4907678;28;20090;-75
2022/03/29 07:04:47;;;;;;;;;;;;;;;;;;4913901;28;20560;-74
2022/03/29 07:07:16;;;;;;;;;;;;;;;;;;5000212;23;20112;-72
2022/03/29 07:12:34;;;;;;;;;;;;;;;;;;4934482;28;20084;-76
2022/03/29 07:15:01;;;;;;;;;;;;;;;;;;4933864;28;20103;-72
2022/03/29 07:17:29;;;;;;;;;;;;;;;;;;4924600;28;20589;-73
2022/03/29 07:19:56;;;;;;;;;;;;;;;;;;4937298;28;20122;-72
2022/03/29 07:22:25;;;;;;;;;;;;;;;;;;4935734;28;20029;-75
2022/03/29 07:24:53;;;;;;;;;;;;;;;;;;4939361;28;20035;-74
2022/03/29 07:27:23;;;;;;;;;;;;;;;;;;4939542;28;20413;-75
2022/03/29 07:29:51;;;;;;;;;;;;;;;;;;4939205;28;20203;-75
2022/03/29 07:32:21;;;;;;;;;;;;;;;;;;4937709;28;20568;-73
2022/03/29 07:34:51;;;;;;;;;;;;;;;;;;4937685;28;20121;-74
2022/03/29 07:37:23;;;;;;;;;;;;;;;;;;4932904;28;20062;-75
2022/03/29 07:39:54;;;;;;;;;;;;;;;;;;4938365;28;20084;-75
2022/03/29 07:42:22;;;;;;;;;;;;;;;;;;4932189;28;20051;-73
2022/03/29 07:44:50;;;;;;;;;;;;;;;;;;4940863;28;20094;-76
2022/03/29 07:47:19;;;;;;;;;;;;;;;;;;4941555;28;20098;-73
2022/03/29 07:49:46;;;;;;;;;;;;;;;;;;4941723;28;20134;-76
2022/03/29 07:52:34;;;;;;;;;;;;;;;;;;4941104;28;20054;-76
2022/03/29 07:55:01;;;;;;;;;;;;;;;;;;4942267;28;20092;-76
2022/03/29 07:57:43;;;;;;;;;;;;;;;;;;4942076;28;20547;-76
2022/03/29 08:03:06;;;;;;;;;;;;;;;;;;4946286;28;20096;-74
2022/03/29 08:05:34;;;;;;;;;;;;;;;;;;4945743;28;20136;-75
2022/03/29 08:08:02;;;;;;;;;;;;;;;;;;4945782;28;20662;-76
2022/03/29 08:10:29;;;;;;;;;;;;;;;;;;4945788;28;20097;-74
2022/03/29 08:12:57;;;;;;;;;;;;;;;;;;4943358;28;20082;-77
2022/03/29 08:15:25;;;;;;;;;;;;;;;;;;4943317;28;20473;-73
2022/03/29 08:18:03;;;;;;;;;;;;;;;;;;4943184;28;20098;-76
2022/03/29 08:20:31;;;;;;;;;;;;;;;;;;4944322;28;20078;-77
2022/03/29 08:23:00;;;;;;;;;;;;;;;;;;4939818;28;20057;-76
2022/03/29 08:25:27;;;;;;;;;;;;;;;;;;4912464;28;20069;-76
2022/03/29 08:28:08;;;;;;;;;;;;;;;;;;4940023;28;20138;-76
2022/03/29 08:30:47;;;;;;;;;;;;;;;;;;4941879;28;20133;-77
2022/03/29 08:33:14;;;;;;;;;;;;;;;;;;4944510;28;20474;-77
2022/03/29 08:35:44;;;;;;;;;;;;;;;;;;4944661;28;20086;-77
2022/03/29 08:38:15;;;;;;;;;;;;;;;;;;4947255;28;20141;-76
2022/03/29 08:40:52;;;;;;;;;;;;;;;;;;4911153;28;20078;-77
2022/03/29 08:43:20;;;;;;;;;;;;;;;;;;4941367;28;20119;-77
2022/03/29 08:45:48;;;;;;;;;;;;;;;;;;4935437;28;20425;-72
2022/03/29 08:48:16;;;;;;;;;;;;;;;;;;4945790;28;20357;-77
2022/03/29 08:50:45;;;;;;;;;;;;;;;;;;4943719;28;20167;-77
2022/03/29 08:53:15;;;;;;;;;;;;;;;;;;4947897;28;20024;-74
2022/03/29 08:55:44;;;;;;;;;;;;;;;;;;4942391;28;20161;-77
2022/03/29 08:58:11;;;;;;;;;;;;;;;;;;4946726;28;20085;-76
2022/03/29 09:00:39;;;;;;;;;;;;;;;;;;4946193;28;20137;-77
2022/03/29 09:03:07;;;;;;;;;;;;;;;;;;4944740;28;20187;-76
2022/03/29 09:05:42;;;;;;;;;;;;;;;;;;4937995;28;20027;-73
2022/03/29 09:08:11;;;;;;;;;;;;;;;;;;4944339;28;20067;-74
2022/03/29 09:10:39;;;;;;;;;;;;;;;;;;4926817;28;20137;-73
2022/03/29 09:13:08;;;;;;;;;;;;;;;;;;4938424;28;20572;-73
2022/03/29 09:15:35;;;;;;;;;;;;;;;;;;4922589;28;20092;-76
2022/03/29 09:18:03;;;;;;;;;;;;;;;;;;4921439;28;20143;-75
2022/03/29 09:20:30;;;;;;;;;;;;;;;;;;4935638;28;20058;-73
2022/03/29 09:23:00;;;;;;;;;;;;;;;;;;4918418;28;20083;-76
2022/03/29 09:25:28;;;;;;;;;;;;;;;;;;4918390;28;20468;-72
2022/03/29 09:27:56;;;;;;;;;;;;;;;;;;4918661;28;20052;-76
2022/03/29 09:30:24;;;;;;;;;;;;;;;;;;4934884;28;20067;-76
2022/03/29 09:32:51;;;;;;;;;;;;;;;;;;4915835;28;25124;-76
2022/03/29 09:35:19;;;;;;;;;;;;;;;;;;4915268;28;20432;-73
2022/03/29 09:37:47;;;;;;;;;;;;;;;;;;4921645;28;20449;-76
2022/03/29 09:40:15;;;;;;;;;;;;;;;;;;4932573;28;20073;-76
2022/03/29 09:43:01;;;;;;;;;;;;;;;;;;4931742;28;20124;-73
2022/03/29 09:45:28;;;;;;;;;;;;;;;;;;4918679;28;20042;-74
2022/03/29 09:47:56;;;;;;;;;;;;;;;;;;4920342;28;20175;-73
2022/03/29 09:50:23;;;;;;;;;;;;;;;;;;4939754;28;20466;-77
2022/03/29 09:52:51;;;;;;;;;;;;;;;;;;4939374;28;20036;-76
2022/03/29 09:55:20;;;;;;;;;;;;;;;;;;4941098;28;20112;-75
2022/03/29 09:57:47;;;;;;;;;;;;;;;;;;4942073;28;20600;-73
2022/03/29 10:00:16;;;;;;;;;;;;;;;;;;4940796;28;20466;-73
2022/03/29 10:02:47;;;;;;;;;;;;;;;;;;4941618;28;20047;-74
2022/03/29 10:05:22;;;;;;;;;;;;;;;;;;4943957;28;20064;-74
2022/03/29 10:07:50;;;;;;;;;;;;;;;;;;4942614;28;20527;-76
2022/03/29 10:10:18;;;;;;;;;;;;;;;;;;4940740;28;20090;-75
2022/03/29 10:12:54;;;;;;;;;;;;;;;;;;4941461;28;20589;-75
2022/03/29 10:15:37;;;;;;;;;;;;;;;;;;4941953;28;20107;-76
2022/03/29 10:18:05;;;;;;;;;;;;;;;;;;4942545;28;20127;-75
2022/03/29 10:20:33;;;;;;;;;;;;;;;;;;4942094;28;20433;-75
2022/03/29 10:23:01;;;;;;;;;;;;;;;;;;4939854;28;20189;-72
2022/03/29 10:25:31;;;;;;;;;;;;;;;;;;4937711;28;20072;-72
2022/03/29 10:27:59;;;;;;;;;;;;;;;;;;4938911;28;20072;-73
2022/03/29 10:30:27;;;;;;;;;;;;;;;;;;4937964;28;20583;-73
2022/03/29 10:32:56;;;;;;;;;;;;;;;;;;4931621;28;20118;-72
2022/03/29 10:35:27;;;;;;;;;;;;;;;;;;4936326;28;20096;-74
2022/03/29 10:37:55;;;;;;;;;;;;;;;;;;4935609;28;20198;-73
2022/03/29 10:40:37;;;;;;;;;;;;;;;;;;4935663;28;20063;-76
2022/03/29 10:43:07;;;;;;;;;;;;;;;;;;4937035;28;20576;-76
2022/03/29 10:45:34;;;;;;;;;;;;;;;;;;4936747;28;20149;-75
2022/03/29 10:48:03;;;;;;;;;;;;;;;;;;4937475;28;20468;-73
2022/03/29 10:50:31;;;;;;;;;;;;;;;;;;4938701;28;20106;-73
2022/03/29 10:53:01;;;;;;;;;;;;;;;;;;4938225;28;20452;-76
2022/03/29 10:55:29;;;;;;;;;;;;;;;;;;4937615;28;20062;-76
2022/03/29 10:57:58;;;;;;;;;;;;;;;;;;4937884;28;20079;-74
2022/03/29 11:00:31;;;;;;;;;;;;;;;;;;4936597;28;20069;-74
2022/03/29 11:02:58;;;;;;;;;;;;;;;;;;4937467;28;20050;-75
2022/03/29 11:05:28;;;;;;;;;;;;;;;;;;4936186;28;20044;-74
2022/03/29 11:07:58;;;;;;;;;;;;;;;;;;4936205;28;20167;-76
2022/03/29 11:10:31;;;;;;;;;;;;;;;;;;4935921;28;20080;-76
2022/03/29 11:12:59;;;;;;;;;;;;;;;;;;4937687;28;20474;-75
2022/03/29 11:15:35;;;;;;;;;;;;;;;;;;4934175;28;20042;-75
2022/03/29 11:18:06;;;;;;;;;;;;;;;;;;4936436;28;20515;-75
2022/03/29 11:20:34;;;;;;;;;;;;;;;;;;4938138;28;20122;-73
2022/03/29 11:23:02;;;;;;;;;;;;;;;;;;4937174;28;20191;-76
2022/03/29 11:25:31;;;;;;;;;;;;;;;;;;4938652;28;20051;-75
2022/03/29 11:28:06;;;;;;;;;;;;;;;;;;4937677;28;20041;-76
2022/03/29 11:30:35;;;;;;;;;;;;;;;;;;4934844;28;20107;-76
2022/03/29 11:33:06;;;;;;;;;;;;;;;;;;4926138;28;20074;-73
2022/03/29 11:35:34;;;;;;;;;;;;;;;;;;4937441;28;20555;-75
2022/03/29 11:38:04;;;;;;;;;;;;;;;;;;4937031;28;20097;-73
2022/03/29 11:40:33;;;;;;;;;;;;;;;;;;4936305;28;20102;-73
2022/03/29 11:43:12;;;;;;;;;;;;;;;;;;4937200;28;20037;-73
2022/03/29 11:45:40;;;;;;;;;;;;;;;;;;4937745;28;20121;-75
2022/03/29 11:48:14;;;;;;;;;;;;;;;;;;4934130;28;20426;-73
2022/03/29 11:50:53;;;;;;;;;;;;;;;;;;4935157;28;20553;-76
2022/03/29 11:53:21;;;;;;;;;;;;;;;;;;4937059;28;20141;-74
2022/03/29 11:55:49;;;;;;;;;;;;;;;;;;4934761;28;20038;-75
2022/03/29 11:58:17;;;;;;;;;;;;;;;;;;4936560;28;20263;-72
2022/03/29 12:00:47;;;;;;;;;;;;;;;;;;4935227;28;20075;-73
2022/03/29 12:03:14;;;;;;;;;;;;;;;;;;4937040;28;20465;-73
2022/03/29 12:05:55;;;;;;;;;;;;;;;;;;4937909;28;20199;-73
2022/03/29 12:08:26;;;;;;;;;;;;;;;;;;4935371;28;25065;-73
2022/03/29 12:10:53;;;;;;;;;;;;;;;;;;4908808;28;20200;-76
2022/03/29 12:13:22;;;;;;;;;;;;;;;;;;4931980;28;20239;-73
2022/03/29 12:15:52;;;;;;;;;;;;;;;;;;4936122;28;20093;-73
2022/03/29 12:18:45;;;;;;;;;;;;;;;;;;4937517;28;20056;-75
2022/03/29 12:21:17;;;;;;;;;;;;;;;;;;4926183;28;20158;-73
2022/03/29 12:23:49;;;;;;;;;;;;;;;;;;4924705;28;20102;-76
2022/03/29 12:26:18;;;;;;;;;;;;;;;;;;4926975;28;20114;-75
2022/03/29 12:28:51;;;;;;;;;;;;;;;;;;4925722;28;20059;-73
2022/03/29 12:31:24;;;;;;;;;;;;;;;;;;4924250;28;20054;-75
2022/03/29 12:33:53;;;;;;;;;;;;;;;;;;4933065;28;20155;-72
2022/03/29 12:36:21;;;;;;;;;;;;;;;;;;4931888;28;20066;-74
2022/03/29 12:38:49;;;;;;;;;;;;;;;;;;4930944;28;20138;-72
2022/03/29 12:41:31;;;;;;;;;;;;;;;;;;4932148;28;20136;-73
2022/03/29 12:44:08;;;;;;;;;;;;;;;;;;4930970;28;20061;-76
2022/03/29 12:46:36;;;;;;;;;;;;;;;;;;4932535;28;20115;-74
2022/03/29 12:49:07;;;;;;;;;;;;;;;;;;4939144;28;20590;-74
2022/03/29 12:51:37;;;;;;;;;;;;;;;;;;4937612;28;20111;-73
2022/03/29 12:54:05;;;;;;;;;;;;;;;;;;4937445;28;20156;-75
2022/03/29 12:56:34;;;;;;;;;;;;;;;;;;4937697;28;20110;-75
2022/03/29 12:59:07;;;;;;;;;;;;;;;;;;4936154;28;20512;-76
2022/03/29 13:01:38;;;;;;;;;;;;;;;;;;4935624;28;20146;-76
2022/03/29 13:04:05;;;;;;;;;;;;;;;;;;4937228;28;20060;-75
2022/03/29 13:06:37;;;;;;;;;;;;;;;;;;4934417;28;20052;-74
2022/03/29 13:09:04;;;;;;;;;;;;;;;;;;4934605;28;20063;-75
2022/03/29 13:11:34;;;;;;;;;;;;;;;;;;4935663;28;20132;-74
2022/03/29 13:14:01;;;;;;;;;;;;;;;;;;4935874;28;20501;-74
2022/03/29 13:16:32;;;;;;;;;;;;;;;;;;4932772;28;20663;-76
2022/03/29 13:19:01;;;;;;;;;;;;;;;;;;4935110;28;20093;-74
2022/03/29 13:21:28;;;;;;;;;;;;;;;;;;4935053;28;20043;-76
2022/03/29 13:23:59;;;;;;;;;;;;;;;;;;4936348;28;20583;-73
2022/03/29 13:26:30;;;;;;;;;;;;;;;;;;4932960;28;20132;-72
2022/03/29 13:28:58;;;;;;;;;;;;;;;;;;4935546;28;20122;-73
2022/03/29 13:31:26;;;;;;;;;;;;;;;;;;4935408;28;20070;-73
2022/03/29 13:33:55;;;;;;;;;;;;;;;;;;4936186;28;20087;-75
2022/03/29 13:36:23;;;;;;;;;;;;;;;;;;4937055;28;20275;-76
2022/03/29 13:38:52;;;;;;;;;;;;;;;;;;4935379;28;20050;-72
2022/03/29 13:41:20;;;;;;;;;;;;;;;;;;4935391;28;20031;-73
2022/03/29 13:43:48;;;;;;;;;;;;;;;;;;4933591;28;20133;-73
2022/03/29 13:46:19;;;;;;;;;;;;;;;;;;4935313;28;20102;-75
2022/03/29 13:49:04;;;;;;;;;;;;;;;;;;4933093;28;20181;-76
2022/03/29 13:51:32;;;;;;;;;;;;;;;;;;4933561;28;20868;-75
2022/03/29 13:54:01;;;;;;;;;;;;;;;;;;4932681;28;20067;-75
2022/03/29 13:56:31;;;;;;;;;;;;;;;;;;4934155;28;20120;-74
2022/03/29 13:58:58;;;;;;;;;;;;;;;;;;4931530;28;20065;-74
2022/03/29 14:01:32;;;;;;;;;;;;;;;;;;4931141;28;20254;-74
2022/03/29 14:04:05;;;;;;;;;;;;;;;;;;4933210;28;20062;-76
2022/03/29 14:06:36;;;;;;;;;;;;;;;;;;4934268;28;20654;-77
2022/03/29 14:09:07;;;;;;;;;;;;;;;;;;4927238;28;20033;-76
2022/03/29 14:11:34;;;;;;;;;;;;;;;;;;4931683;28;20242;-74
2022/03/29 14:14:02;;;;;;;;;;;;;;;;;;4930132;28;20109;-73
2022/03/29 14:16:39;;;;;;;;;;;;;;;;;;4928292;28;20060;-76
2022/03/29 14:19:08;;;;;;;;;;;;;;;;;;4926478;28;20077;-76
2022/03/29 14:21:39;;;;;;;;;;;;;;;;;;4925725;28;20062;-74
2022/03/29 14:24:08;;;;;;;;;;;;;;;;;;4907797;28;20215;-74
2022/03/29 14:26:39;;;;;;;;;;;;;;;;;;4872172;28;20238;-74
2022/03/29 14:29:07;;;;;;;;;;;;;;;;;;4872617;28;20064;-73
2022/03/29 14:31:34;;;;;;;;;;;;;;;;;;4862032;28;20152;-74
2022/03/29 14:34:02;;;;;;;;;;;;;;;;;;4874277;28;20401;-75
2022/03/29 14:36:32;;;;;;;;;;;;;;;;;;4885018;28;20231;-73
2022/03/29 14:39:03;;;;;;;;;;;;;;;;;;4871232;28;20262;-75
2022/03/29 14:41:31;;;;;;;;;;;;;;;;;;4886688;28;20633;-75
2022/03/29 14:44:08;;;;;;;;;;;;;;;;;;4852081;28;25086;-75
2022/03/29 14:46:43;;;;;;;;;;;;;;;;;;4889628;28;20215;-73
2022/03/29 14:49:10;;;;;;;;;;;;;;;;;;4886080;28;20251;-75
2022/03/29 14:51:41;;;;;;;;;;;;;;;;;;4884525;28;20490;-76
2022/03/29 14:54:13;;;;;;;;;;;;;;;;;;4927800;28;20071;-74
2022/03/29 14:56:43;;;;;;;;;;;;;;;;;;4930075;28;20118;-72
2022/03/29 14:59:12;;;;;;;;;;;;;;;;;;4930718;28;20106;-73
2022/03/29 15:01:42;;;;;;;;;;;;;;;;;;4928490;28;20143;-72
2022/03/29 15:04:13;;;;;;;;;;;;;;;;;;4925442;28;20194;-76
2022/03/29 15:06:42;;;;;;;;;;;;;;;;;;4928305;28;20038;-72
2022/03/29 15:09:10;;;;;;;;;;;;;;;;;;4926447;28;20137;-75
2022/03/29 15:11:38;;;;;;;;;;;;;;;;;;4925662;28;20248;-75
2022/03/29 15:14:06;;;;;;;;;;;;;;;;;;4884433;28;20087;-75
2022/03/29 15:16:35;;;;;;;;;;;;;;;;;;4884123;28;20248;-76
2022/03/29 15:19:07;;;;;;;;;;;;;;;;;;4923827;28;20088;-75
2022/03/29 15:21:35;;;;;;;;;;;;;;;;;;4923345;28;20083;-75
2022/03/29 15:24:03;;;;;;;;;;;;;;;;;;4909433;28;20551;-75
2022/03/29 15:26:33;;;;;;;;;;;;;;;;;;4912185;28;20054;-75
2022/03/29 15:29:01;;;;;;;;;;;;;;;;;;4923066;28;20095;-74
2022/03/29 15:31:31;;;;;;;;;;;;;;;;;;4921943;28;20083;-75
2022/03/29 15:34:00;;;;;;;;;;;;;;;;;;4919506;28;20297;-76
2022/03/29 15:36:27;;;;;;;;;;;;;;;;;;4922299;28;20065;-75
2022/03/29 15:38:56;;;;;;;;;;;;;;;;;;4920153;28;20523;-75
2022/03/29 15:41:24;;;;;;;;;;;;;;;;;;4902495;28;20091;-74
2022/03/29 15:43:52;;;;;;;;;;;;;;;;;;4893931;28;20502;-75
2022/03/29 15:46:21;;;;;;;;;;;;;;;;;;4918775;28;20169;-74
2022/03/29 15:48:48;;;;;;;;;;;;;;;;;;4923004;28;20631;-74
2022/03/29 15:51:23;;;;;;;;;;;;;;;;;;4884192;28;20140;-75
2022/03/29 15:53:50;;;;;;;;;;;;;;;;;;4883209;28;20400;-74
2022/03/29 15:56:19;;;;;;;;;;;;;;;;;;4874759;28;20371;-75
2022/03/29 15:58:50;;;;;;;;;;;;;;;;;;4896057;28;20168;-74
2022/03/29 16:01:19;;;;;;;;;;;;;;;;;;4902814;28;20240;-75
2022/03/29 16:03:49;;;;;;;;;;;;;;;;;;4916785;28;20088;-74
2022/03/29 16:06:16;;;;;;;;;;;;;;;;;;4919516;28;20547;-76
2022/03/29 16:08:48;;;;;;;;;;;;;;;;;;4921573;28;20112;-76
2022/03/29 16:11:19;;;;;;;;;;;;;;;;;;4924091;28;20076;-75
2022/03/29 16:13:48;;;;;;;;;;;;;;;;;;4903310;28;20137;-74
2022/03/29 16:16:20;;;;;;;;;;;;;;;;;;4883537;28;20701;-74
2022/03/29 16:18:48;;;;;;;;;;;;;;;;;;4907684;28;20173;-75
2022/03/29 16:21:16;;;;;;;;;;;;;;;;;;4917318;28;20076;-75
2022/03/29 16:23:43;;;;;;;;;;;;;;;;;;4900280;28;20240;-74
2022/03/29 16:26:12;;;;;;;;;;;;;;;;;;4901740;28;20132;-74
2022/03/29 16:28:39;;;;;;;;;;;;;;;;;;4855956;28;20473;-75
2022/03/29 16:31:06;;;;;;;;;;;;;;;;;;4869961;28;20142;-75
2022/03/29 16:33:34;;;;;;;;;;;;;;;;;;4876682;28;20501;-73
2022/03/29 16:36:04;;;;;;;;;;;;;;;;;;4864897;28;20321;-75